Time;durP1;ratioP1;P1;durP2;ratioP2;P2;SDS_P1;SDS_P2;PMS_P1;PMS_P2;Temp;Humidity;BMP_temperature;BMP_pressure;BME280_temperature;BME280_humidity;BME280_pressure;Samples;Min_cycle;Max_cycle;Signal;HPM_P1;HPM_P2
2023/08/23 00:00:07;;;;;;;7.38;5.32;;;14.60;94.00;;;;;;4965002;28;20042;-84
2023/08/23 00:02:34;;;;;;;9.60;5.03;;;14.60;94.60;;;;;;4972624;28;20047;-84
2023/08/23 00:05:01;;;;;;;11.32;4.90;;;14.50;94.50;;;;;;4996862;28;20459;-84
2023/08/23 00:07:28;;;;;;;7.15;3.90;;;14.50;94.50;;;;;;4985818;28;20043;-84
2023/08/23 00:09:55;;;;;;;9.40;4.43;;;14.40;94.70;;;;;;4970038;28;20046;-83
2023/08/23 00:12:21;;;;;;;5.85;4.03;;;14.30;94.60;;;;;;4990205;28;20088;-83
2023/08/23 00:14:48;;;;;;;8.60;4.53;;;14.30;94.80;;;;;;4986129;28;20085;-84
2023/08/23 00:17:15;;;;;;;7.68;4.38;;;14.30;94.90;;;;;;4974934;28;20085;-85
2023/08/23 00:19:42;;;;;;;10.02;5.18;;;14.30;95.30;;;;;;4983783;28;20124;-85
2023/08/23 00:22:09;;;;;;;13.35;5.15;;;14.20;95.30;;;;;;4979363;28;20042;-84
2023/08/23 00:24:36;;;;;;;13.57;5.18;;;14.20;95.60;;;;;;4978785;28;20467;-84
2023/08/23 00:27:03;;;;;;;11.18;5.25;;;14.20;95.60;;;;;;4975071;28;20140;-73
2023/08/23 00:29:30;;;;;;;10.63;5.00;;;14.20;95.20;;;;;;4965766;28;20050;-73
2023/08/23 00:31:57;;;;;;;16.52;5.30;;;14.20;95.40;;;;;;4974329;28;20090;-73
2023/08/23 00:34:24;;;;;;;10.40;5.22;;;14.10;95.40;;;;;;4970680;28;20050;-73
2023/08/23 00:36:51;;;;;;;10.60;5.25;;;14.10;95.60;;;;;;4981212;28;20129;-73
2023/08/23 00:39:17;;;;;;;9.38;5.28;;;14.10;96.00;;;;;;4983865;28;20142;-72
2023/08/23 00:41:44;;;;;;;12.60;5.38;;;14.10;96.10;;;;;;4991056;28;20069;-84
2023/08/23 00:44:11;;;;;;;11.85;5.47;;;14.10;96.10;;;;;;4978076;28;20491;-84
2023/08/23 00:46:39;;;;;;;10.38;5.00;;;14.10;95.90;;;;;;4973315;28;20146;-84
2023/08/23 00:49:09;;;;;;;14.18;5.50;;;14.00;96.00;;;;;;4982001;28;20518;-84
2023/08/23 00:51:36;;;;;;;8.75;5.03;;;14.00;96.20;;;;;;4984293;28;20113;-72
2023/08/23 00:54:03;;;;;;;11.52;5.18;;;13.90;96.20;;;;;;4985917;28;20054;-72
2023/08/23 00:56:31;;;;;;;7.18;4.88;;;13.90;96.40;;;;;;4979273;28;20050;-72
2023/08/23 00:58:58;;;;;;;9.45;4.70;;;13.90;96.30;;;;;;4979111;28;20050;-72
2023/08/23 01:01:25;;;;;;;10.98;5.22;;;13.80;96.90;;;;;;4966749;28;20090;-72
2023/08/23 01:03:56;;;;;;;11.07;5.68;;;13.80;96.70;;;;;;4980721;28;20050;-72
2023/08/23 01:06:49;;;;;;;10.45;5.30;;;13.80;96.90;;;;;;4966651;28;20066;-72
2023/08/23 01:09:31;;;;;;;14.23;5.25;;;13.80;96.70;;;;;;4977903;28;20065;-72
2023/08/23 01:12:16;;;;;;;13.70;5.60;;;13.80;96.70;;;;;;4981500;28;20091;-72
2023/08/23 01:15:04;;;;;;;8.43;4.38;;;13.80;96.20;;;;;;4988257;28;20769;-72
2023/08/23 01:17:32;;;;;;;7.85;4.28;;;13.70;95.90;;;;;;4971821;28;20042;-72
2023/08/23 01:19:59;;;;;;;10.85;4.60;;;13.70;95.60;;;;;;4986015;28;20073;-72
2023/08/23 01:22:30;;;;;;;8.20;4.35;;;13.70;95.50;;;;;;4987697;28;20136;-72
2023/08/23 01:24:57;;;;;;;6.65;4.38;;;13.70;95.20;;;;;;4969830;28;20050;-83
2023/08/23 01:27:24;;;;;;;4.43;3.75;;;13.70;95.20;;;;;;4966575;28;20050;-84
2023/08/23 01:29:50;;;;;;;6.88;4.22;;;13.60;95.20;;;;;;4988777;28;20125;-84
2023/08/23 01:32:45;;;;;;;13.05;5.78;;;13.70;95.30;;;;;;4987311;28;20056;-84
2023/08/23 01:35:32;;;;;;;11.25;4.40;;;13.60;95.10;;;;;;4990916;28;20050;-84
2023/08/23 01:38:01;;;;;;;9.55;4.38;;;13.60;95.60;;;;;;4987380;28;20058;-84
2023/08/23 01:40:31;;;;;;;10.13;4.32;;;13.60;95.50;;;;;;4990955;28;20046;-84
2023/08/23 01:42:59;;;;;;;5.40;3.95;;;13.60;95.50;;;;;;4991299;28;20199;-83
2023/08/23 01:45:26;;;;;;;7.75;4.22;;;13.50;95.50;;;;;;4974116;28;20042;-83
2023/08/23 01:47:53;;;;;;;10.73;3.80;;;13.50;95.50;;;;;;4980303;28;20050;-84
2023/08/23 01:50:20;;;;;;;10.27;3.47;;;13.50;95.60;;;;;;4973775;28;20051;-84
2023/08/23 01:52:46;;;;;;;6.97;3.67;;;13.50;95.50;;;;;;4975333;28;20046;-84
2023/08/23 01:55:17;;;;;;;8.43;3.80;;;13.50;95.60;;;;;;4992994;28;20046;-84
2023/08/23 01:57:47;;;;;;;4.90;3.75;;;13.50;95.60;;;;;;4983319;28;20137;-84
2023/08/23 02:00:14;;;;;;;5.82;3.30;;;13.40;95.60;;;;;;4989497;28;20141;-84
2023/08/23 02:02:41;;;;;;;5.15;3.50;;;13.40;95.50;;;;;;4968560;28;20118;-85
2023/08/23 02:05:08;;;;;;;10.43;4.38;;;13.40;95.80;;;;;;4965397;28;20047;-85
2023/08/23 02:07:36;;;;;;;6.95;4.03;;;13.40;95.80;;;;;;4984265;28;20073;-85
2023/08/23 02:10:03;;;;;;;7.65;3.90;;;13.40;95.80;;;;;;4991568;28;20550;-85
2023/08/23 02:12:30;;;;;;;5.60;3.72;;;13.30;95.80;;;;;;4959286;28;20057;-85
2023/08/23 02:14:57;;;;;;;6.35;4.13;;;13.40;95.90;;;;;;4967315;28;20446;-84
2023/08/23 02:17:24;;;;;;;10.48;4.00;;;13.30;95.90;;;;;;4981281;28;20055;-84
2023/08/23 02:19:50;;;;;;;6.72;3.95;;;13.30;95.90;;;;;;4974484;28;20475;-85
2023/08/23 02:22:17;;;;;;;9.45;4.20;;;13.30;95.60;;;;;;4989246;28;20562;-84
2023/08/23 02:24:44;;;;;;;8.70;4.30;;;13.30;95.70;;;;;;4989182;28;20038;-84
2023/08/23 02:27:11;;;;;;;7.68;4.65;;;13.30;96.00;;;;;;4970121;28;20129;-84
2023/08/23 02:29:38;;;;;;;5.82;4.03;;;13.30;96.00;;;;;;4987368;28;20145;-84
2023/08/23 02:32:05;;;;;;;10.52;4.70;;;13.30;96.00;;;;;;4982989;28;20067;-84
2023/08/23 02:34:31;;;;;;;8.75;4.65;;;13.20;96.20;;;;;;4974734;28;20043;-84
2023/08/23 02:36:58;;;;;;;10.85;4.22;;;13.20;96.10;;;;;;4989982;28;20738;-84
2023/08/23 02:39:26;;;;;;;8.68;4.30;;;13.20;96.40;;;;;;4991217;28;20046;-84
2023/08/23 02:41:52;;;;;;;9.70;4.65;;;13.20;96.60;;;;;;4991362;28;20060;-85
2023/08/23 02:44:19;;;;;;;6.93;4.00;;;13.20;96.70;;;;;;4985464;28;20047;-84
2023/08/23 02:46:46;;;;;;;9.30;4.47;;;13.20;96.70;;;;;;4975908;28;20082;-84
2023/08/23 02:49:13;;;;;;;6.43;4.50;;;13.20;96.70;;;;;;4991047;28;20058;-85
2023/08/23 02:51:40;;;;;;;7.80;5.32;;;13.20;96.80;;;;;;4975286;28;20046;-84
2023/08/23 02:54:07;;;;;;;11.25;5.22;;;13.20;96.90;;;;;;4968840;28;20105;-84
2023/08/23 02:56:33;;;;;;;11.82;5.88;;;13.20;97.00;;;;;;4984344;28;20580;-84
2023/08/23 02:59:00;;;;;;;7.40;5.55;;;13.20;97.10;;;;;;4975516;28;20050;-84
2023/08/23 03:01:27;;;;;;;11.70;5.60;;;13.30;97.50;;;;;;4989441;28;21922;-85
2023/08/23 03:03:54;;;;;;;11.85;5.55;;;13.40;97.20;;;;;;4972504;28;20096;-84
2023/08/23 03:06:21;;;;;;;8.18;4.75;;;13.40;97.00;;;;;;4965388;28;20447;-84
2023/08/23 03:08:48;;;;;;;11.15;5.30;;;13.40;97.00;;;;;;4975185;28;20051;-84
2023/08/23 03:11:15;;;;;;;7.43;4.65;;;13.40;97.10;;;;;;4972903;28;20407;-84
2023/08/23 03:13:41;;;;;;;7.93;4.75;;;13.40;97.20;;;;;;4979003;28;20050;-84
2023/08/23 03:16:08;;;;;;;12.15;5.05;;;13.30;97.20;;;;;;4972870;28;20086;-83
2023/08/23 03:18:35;;;;;;;10.30;4.97;;;13.30;97.10;;;;;;4984288;28;20051;-83
2023/08/23 03:21:02;;;;;;;10.90;4.75;;;13.20;97.30;;;;;;4988460;28;20086;-83
2023/08/23 03:23:29;;;;;;;14.90;5.03;;;13.10;97.60;;;;;;4971223;28;20096;-83
2023/08/23 03:25:56;;;;;;;10.77;4.57;;;13.10;97.70;;;;;;4983981;28;20050;-83
2023/08/23 03:28:23;;;;;;;4.93;4.20;;;13.10;97.70;;;;;;4992616;28;20105;-83
2023/08/23 03:30:50;;;;;;;7.85;3.58;;;13.00;97.70;;;;;;4984576;28;20050;-83
2023/08/23 03:33:16;;;;;;;6.10;4.50;;;13.00;97.40;;;;;;4987845;28;20088;-84
2023/08/23 03:35:43;;;;;;;9.90;4.57;;;13.00;97.50;;;;;;4973892;28;20465;-83
2023/08/23 03:38:10;;;;;;;7.95;4.70;;;13.00;98.10;;;;;;4981562;28;20054;-83
2023/08/23 03:40:38;;;;;;;8.27;4.93;;;13.00;98.30;;;;;;4984425;28;20051;-84
2023/08/23 03:43:05;;;;;;;9.63;4.82;;;13.10;98.50;;;;;;4986122;28;20491;-84
2023/08/23 03:45:33;;;;;;;9.82;3.95;;;13.00;98.30;;;;;;4989859;28;20042;-84
2023/08/23 03:48:00;;;;;;;12.40;4.70;;;13.00;98.30;;;;;;4988199;28;20058;-83
2023/08/23 03:50:27;;;;;;;12.73;4.45;;;13.00;98.30;;;;;;4988631;28;20058;-83
2023/08/23 03:52:53;;;;;;;13.60;5.03;;;13.10;98.30;;;;;;4975037;28;20486;-83
2023/08/23 03:55:20;;;;;;;11.57;6.00;;;13.10;98.50;;;;;;4984948;28;20046;-84
2023/08/23 03:57:47;;;;;;;10.10;5.55;;;13.10;98.90;;;;;;4989656;28;20046;-84
2023/08/23 04:00:15;;;;;;;11.32;5.30;;;13.20;98.80;;;;;;4989306;28;20054;-83
2023/08/23 04:02:43;;;;;;;10.98;5.53;;;13.20;98.30;;;;;;4967048;28;20476;-83
2023/08/23 04:05:12;;;;;;;10.15;5.53;;;13.20;98.30;;;;;;4967026;28;20051;-84
2023/08/23 04:07:40;;;;;;;15.57;6.15;;;13.20;98.40;;;;;;4971515;28;20125;-84
2023/08/23 04:10:08;;;;;;;10.18;6.43;;;13.30;98.50;;;;;;4971494;28;20061;-83
2023/08/23 04:12:35;;;;;;;11.73;7.20;;;13.30;98.70;;;;;;4992417;28;20066;-83
2023/08/23 04:15:02;;;;;;;24.50;7.47;;;13.30;99.20;;;;;;4971350;28;20122;-83
2023/08/23 04:17:29;;;;;;;12.60;6.25;;;13.30;99.20;;;;;;4983241;28;20126;-83
2023/08/23 04:19:56;;;;;;;20.20;8.48;;;13.40;99.20;;;;;;4989139;28;20062;-84
2023/08/23 04:22:23;;;;;;;13.55;6.20;;;13.40;99.40;;;;;;4981277;28;20048;-83
2023/08/23 04:24:51;;;;;;;35.10;6.97;;;13.40;99.00;;;;;;4963518;28;20062;-83
2023/08/23 04:27:18;;;;;;;10.40;5.57;;;13.50;98.70;;;;;;4967363;28;20574;-84
2023/08/23 04:29:44;;;;;;;8.40;5.45;;;13.50;98.40;;;;;;4967339;28;20462;-83
2023/08/23 04:32:12;;;;;;;11.27;5.85;;;13.60;98.60;;;;;;4989512;28;20078;-83
2023/08/23 04:34:40;;;;;;;10.73;6.10;;;13.70;98.10;;;;;;4979117;28;20092;-83
2023/08/23 04:37:07;;;;;;;14.52;6.28;;;13.80;98.30;;;;;;4975410;28;20129;-83
2023/08/23 04:39:34;;;;;;;19.38;6.28;;;13.80;98.00;;;;;;4972935;28;20043;-83
2023/08/23 04:42:01;;;;;;;17.83;6.50;;;14.00;97.90;;;;;;4973103;28;20132;-83
2023/08/23 04:44:29;;;;;;;21.27;7.95;;;14.10;97.90;;;;;;4978678;28;20692;-83
2023/08/23 04:46:57;;;;;;;15.40;6.43;;;14.10;98.00;;;;;;4990882;28;20912;-84
2023/08/23 04:49:24;;;;;;;15.23;7.88;;;14.20;97.90;;;;;;4976395;28;20074;-84
2023/08/23 04:51:51;;;;;;;15.07;7.63;;;14.20;98.20;;;;;;4985343;28;20058;-84
2023/08/23 04:54:18;;;;;;;13.90;6.50;;;14.20;98.70;;;;;;4969308;28;20392;-83
2023/08/23 04:56:45;;;;;;;16.50;7.32;;;14.30;98.20;;;;;;4984696;28;20057;-84
2023/08/23 04:59:12;;;;;;;18.02;7.03;;;14.20;98.20;;;;;;4973650;28;20133;-83
2023/08/23 05:01:39;;;;;;;11.27;6.82;;;14.30;98.80;;;;;;4986132;28;20050;-86
2023/08/23 05:04:07;;;;;;;16.02;7.75;;;14.40;98.70;;;;;;4987349;28;20073;-81
2023/08/23 05:06:35;;;;;;;16.77;7.15;;;14.40;98.90;;;;;;4982299;28;20053;-84
2023/08/23 05:09:04;;;;;;;15.15;8.02;;;14.50;98.90;;;;;;4990757;28;20095;-81
2023/08/23 05:11:32;;;;;;;19.42;8.65;;;14.60;98.80;;;;;;4985199;28;20057;-81
2023/08/23 05:13:59;;;;;;;16.35;9.32;;;14.70;99.20;;;;;;4990676;28;20707;-81
2023/08/23 05:16:26;;;;;;;13.43;6.68;;;14.80;99.50;;;;;;4967526;28;20762;-79
2023/08/23 05:18:53;;;;;;;11.30;5.88;;;14.80;98.00;;;;;;4969096;28;20058;-81
2023/08/23 05:21:20;;;;;;;15.35;6.40;;;14.90;96.90;;;;;;4988317;28;20057;-81
2023/08/23 05:23:46;;;;;;;9.27;5.75;;;14.90;96.40;;;;;;4989935;28;20050;-80
2023/08/23 05:26:13;;;;;;;12.95;6.18;;;14.90;96.90;;;;;;4987293;28;20136;-79
2023/08/23 05:28:40;;;;;;;12.13;5.32;;;14.90;97.20;;;;;;4978973;28;20862;-79
2023/08/23 05:31:07;;;;;;;9.55;5.00;;;14.90;96.40;;;;;;4989763;28;20053;-82
2023/08/23 05:33:35;;;;;;;8.68;5.03;;;15.00;96.00;;;;;;4990619;28;20135;-82
2023/08/23 05:36:01;;;;;;;16.73;5.30;;;15.10;95.80;;;;;;4988025;28;20133;-80
2023/08/23 05:38:29;;;;;;;12.75;5.35;;;15.20;95.20;;;;;;4987358;28;20093;-78
2023/08/23 05:40:56;;;;;;;7.38;5.22;;;15.30;94.80;;;;;;4980634;28;20129;-79
2023/08/23 05:43:23;;;;;;;19.30;5.68;;;15.30;94.50;;;;;;4985132;28;20634;-79
2023/08/23 05:45:51;;;;;;;13.45;4.95;;;15.30;94.90;;;;;;4986596;28;20122;-78
2023/08/23 05:48:18;;;;;;;15.48;5.20;;;15.40;94.50;;;;;;4988813;28;20058;-79
2023/08/23 05:50:46;;;;;;;12.27;5.50;;;15.50;95.50;;;;;;4968741;28;20140;-79
2023/08/23 05:53:18;;;;;;;14.07;5.78;;;15.60;95.70;;;;;;4969289;28;20142;-79
2023/08/23 05:55:49;;;;;;;13.85;6.03;;;15.70;95.80;;;;;;4984201;28;20599;-79
2023/08/23 05:58:21;;;;;;;15.20;5.57;;;16.00;95.60;;;;;;4959904;28;20042;-79
2023/08/23 06:00:49;;;;;;;10.35;5.85;;;16.30;95.00;;;;;;4979020;28;20057;-79
2023/08/23 06:03:16;;;;;;;14.82;6.05;;;16.60;93.50;;;;;;4986998;28;20050;-78
2023/08/23 06:05:44;;;;;;;9.05;5.10;;;16.90;93.10;;;;;;4990330;28;22222;-79
2023/08/23 06:08:11;;;;;;;24.70;7.63;;;17.10;92.50;;;;;;4985073;28;20093;-80
2023/08/23 06:10:38;;;;;;;13.50;6.90;;;17.20;92.30;;;;;;4989620;28;20050;-80
2023/08/23 06:13:05;;;;;;;15.15;8.52;;;17.30;92.80;;;;;;4986125;28;20090;-80
2023/08/23 06:15:32;;;;;;;20.35;7.65;;;17.50;92.80;;;;;;4985521;28;20057;-80
2023/08/23 06:17:59;;;;;;;14.07;7.35;;;17.70;92.50;;;;;;4972098;28;20054;-79
2023/08/23 06:20:28;;;;;;;11.40;7.00;;;17.90;91.80;;;;;;4983721;28;20477;-79
2023/08/23 06:22:56;;;;;;;19.98;7.85;;;18.10;91.20;;;;;;4973932;28;20088;-79
2023/08/23 06:25:23;;;;;;;14.75;7.55;;;18.20;90.60;;;;;;4976235;28;20483;-79
2023/08/23 06:27:50;;;;;;;15.90;7.63;;;18.30;90.00;;;;;;4969845;28;20082;-79
2023/08/23 06:30:17;;;;;;;14.30;6.82;;;18.30;89.50;;;;;;4983267;28;20063;-78
2023/08/23 06:32:48;;;;;;;13.20;6.97;;;18.40;90.00;;;;;;4990775;28;20069;-79
2023/08/23 06:35:16;;;;;;;13.52;7.60;;;18.70;90.00;;;;;;4983720;28;20054;-79
2023/08/23 06:37:43;;;;;;;13.18;6.22;;;19.10;88.70;;;;;;4985252;28;20046;-79
2023/08/23 06:40:12;;;;;;;9.88;6.60;;;20.40;84.10;;;;;;4982273;28;20056;-79
2023/08/23 06:42:39;;;;;;;13.13;6.45;;;20.90;80.00;;;;;;4990826;28;20077;-79
2023/08/23 06:45:08;;;;;;;12.25;6.05;;;21.30;76.20;;;;;;4982398;28;20051;-79
2023/08/23 06:47:36;;;;;;;10.30;6.18;;;20.60;77.50;;;;;;4990901;28;20525;-79
2023/08/23 06:50:04;;;;;;;17.65;6.53;;;20.30;79.30;;;;;;4990645;28;20061;-79
2023/08/23 06:52:36;;;;;;;17.80;6.43;;;20.10;81.00;;;;;;4977620;28;20538;-79
2023/08/23 06:55:04;;;;;;;14.05;6.20;;;20.00;82.40;;;;;;4965370;28;20105;-79
2023/08/23 06:57:30;;;;;;;10.65;6.05;;;20.50;79.40;;;;;;4975488;28;20114;-78
2023/08/23 06:59:58;;;;;;;17.42;6.68;;;20.70;78.50;;;;;;4968483;28;20753;-78
2023/08/23 07:02:25;;;;;;;18.13;6.00;;;21.10;80.70;;;;;;4976166;28;20042;-80
2023/08/23 07:04:52;;;;;;;11.90;5.85;;;21.90;78.40;;;;;;4972077;28;20642;-80
2023/08/23 07:07:20;;;;;;;11.40;6.05;;;22.60;76.60;;;;;;4976241;28;20051;-80
2023/08/23 07:09:47;;;;;;;15.13;6.78;;;23.40;73.60;;;;;;4973362;28;20061;-80
2023/08/23 07:12:14;;;;;;;18.38;6.85;;;22.80;74.70;;;;;;4975896;28;20108;-79
2023/08/23 07:14:42;;;;;;;18.05;8.13;;;23.20;74.40;;;;;;4997453;28;20057;-80
2023/08/23 07:17:09;;;;;;;15.30;7.90;;;23.00;74.20;;;;;;4984258;28;20050;-79
2023/08/23 07:19:36;;;;;;;22.42;7.15;;;23.00;74.00;;;;;;4974022;28;20562;-79
2023/08/23 07:22:03;;;;;;;14.77;6.53;;;23.10;74.30;;;;;;4985401;28;20053;-79
2023/08/23 07:24:31;;;;;;;13.43;6.57;;;23.10;75.80;;;;;;4977492;28;20153;-71
2023/08/23 07:26:58;;;;;;;15.98;5.63;;;23.40;74.80;;;;;;4971503;28;20050;-71
2023/08/23 07:29:26;;;;;;;16.77;6.07;;;24.00;73.30;;;;;;4973362;28;20405;-71
2023/08/23 07:31:55;;;;;;;20.00;6.15;;;24.30;71.50;;;;;;4978849;28;20042;-71
2023/08/23 07:34:25;;;;;;;17.35;7.40;;;24.80;70.40;;;;;;4981184;28;20065;-71
2023/08/23 07:36:52;;;;;;;14.57;6.22;;;24.70;70.60;;;;;;4987090;28;20152;-71
2023/08/23 07:39:18;;;;;;;15.65;5.70;;;24.90;69.70;;;;;;4983852;28;20050;-69
2023/08/23 07:41:45;;;;;;;12.02;6.22;;;25.10;69.00;;;;;;4969099;28;20690;-70
2023/08/23 07:44:14;;;;;;;12.43;6.00;;;25.50;68.30;;;;;;4962083;28;20065;-69
2023/08/23 07:46:42;;;;;;;13.20;5.47;;;25.50;68.00;;;;;;4988990;28;20051;-69
2023/08/23 07:49:10;;;;;;;12.07;6.60;;;25.70;67.50;;;;;;4968304;28;20117;-70
2023/08/23 07:51:38;;;;;;;17.95;6.45;;;25.80;65.80;;;;;;4986941;28;20447;-70
2023/08/23 07:54:05;;;;;;;11.73;5.47;;;25.90;66.40;;;;;;4986035;28;20054;-70
2023/08/23 07:56:32;;;;;;;16.05;6.35;;;26.40;65.60;;;;;;4989344;28;20050;-70
2023/08/23 07:58:59;;;;;;;15.52;5.53;;;27.10;63.80;;;;;;4987441;28;20042;-70
2023/08/23 08:01:26;;;;;;;18.42;5.78;;;27.30;64.40;;;;;;4983476;28;20053;-69
2023/08/23 08:03:55;;;;;;;13.55;5.90;;;27.10;61.60;;;;;;4984002;28;20058;-70
2023/08/23 08:06:22;;;;;;;12.82;5.63;;;26.80;63.50;;;;;;4984179;28;20494;-69
2023/08/23 08:08:49;;;;;;;11.68;5.30;;;26.80;64.30;;;;;;4981587;28;20904;-70
2023/08/23 08:11:16;;;;;;;14.98;5.45;;;26.20;65.70;;;;;;4984800;28;20046;-70
2023/08/23 08:13:44;;;;;;;13.45;5.80;;;26.20;66.60;;;;;;4987626;28;20149;-70
2023/08/23 08:16:14;;;;;;;13.73;5.95;;;26.80;62.70;;;;;;4978781;28;20062;-69
2023/08/23 08:18:43;;;;;;;12.65;6.97;;;27.00;62.20;;;;;;4969693;28;20049;-70
2023/08/23 08:21:10;;;;;;;13.65;7.70;;;26.50;63.40;;;;;;4990065;28;20046;-71
2023/08/23 08:23:38;;;;;;;20.83;6.85;;;26.30;64.90;;;;;;4990611;28;20055;-69
2023/08/23 08:26:06;;;;;;;11.32;5.70;;;26.20;66.90;;;;;;4990405;28;20080;-70
2023/08/23 08:28:34;;;;;;;18.52;6.40;;;26.50;64.90;;;;;;4973478;28;20054;-70
2023/08/23 08:31:01;;;;;;;18.27;6.32;;;26.90;65.70;;;;;;4962775;28;20047;-70
2023/08/23 08:33:29;;;;;;;15.32;6.90;;;26.80;64.00;;;;;;4976068;28;20790;-70
2023/08/23 08:35:55;;;;;;;10.45;5.70;;;26.70;64.80;;;;;;4987299;28;20557;-70
2023/08/23 08:38:23;;;;;;;18.55;6.35;;;26.90;65.40;;;;;;4987668;28;20057;-72
2023/08/23 08:40:50;;;;;;;16.00;5.55;;;26.70;64.10;;;;;;4990593;28;20046;-80
2023/08/23 08:43:18;;;;;;;16.63;5.30;;;27.40;64.50;;;;;;4977522;28;20070;-79
2023/08/23 08:45:45;;;;;;;11.90;5.38;;;27.00;63.60;;;;;;4988620;28;20046;-79
2023/08/23 08:48:12;;;;;;;11.75;5.53;;;27.30;60.50;;;;;;4974857;28;20061;-78
2023/08/23 08:50:43;;;;;;;18.55;5.80;;;27.20;62.10;;;;;;4970658;28;20053;-78
2023/08/23 08:53:17;;;;;;;13.38;5.47;;;26.50;63.80;;;;;;4975106;28;20065;-79
2023/08/23 08:55:48;;;;;;;13.43;5.60;;;26.10;62.80;;;;;;4971570;28;20168;-78
2023/08/23 08:58:19;;;;;;;25.60;6.75;;;25.90;65.10;;;;;;4975918;28;20458;-78
2023/08/23 09:00:51;;;;;;;19.13;6.03;;;26.10;65.50;;;;;;4987424;28;20046;-78
2023/08/23 09:03:19;;;;;;;14.43;4.80;;;26.40;62.20;;;;;;4977750;28;20544;-78
2023/08/23 09:05:48;;;;;;;13.48;4.60;;;26.30;63.00;;;;;;4992468;28;20743;-78
2023/08/23 09:08:15;;;;;;;31.15;5.55;;;26.30;64.00;;;;;;4991846;28;20062;-78
2023/08/23 09:10:42;;;;;;;14.40;4.05;;;27.10;63.70;;;;;;4984152;28;20125;-78
2023/08/23 09:13:09;;;;;;;10.38;3.97;;;26.80;61.40;;;;;;4981544;28;20059;-78
2023/08/23 09:15:36;;;;;;;8.23;3.83;;;27.10;61.20;;;;;;4989370;28;20077;-78
2023/08/23 09:18:03;;;;;;;10.63;4.00;;;27.00;62.60;;;;;;4995142;28;20133;-79
2023/08/23 09:20:30;;;;;;;8.90;3.13;;;27.20;59.90;;;;;;4991047;28;20126;-78
2023/08/23 09:22:57;;;;;;;7.97;3.10;;;26.70;61.00;;;;;;4991323;28;20137;-78
2023/08/23 09:25:24;;;;;;;8.52;3.38;;;26.80;62.50;;;;;;4982750;28;20085;-78
2023/08/23 09:27:54;;;;;;;7.63;2.55;;;26.90;59.90;;;;;;4988872;28;20050;-78
2023/08/23 09:30:22;;;;;;;10.60;2.78;;;27.10;61.00;;;;;;4978718;28;20141;-78
2023/08/23 09:32:49;;;;;;;4.90;2.53;;;27.30;59.60;;;;;;4984965;28;20118;-78
2023/08/23 09:35:17;;;;;;;7.63;2.35;;;27.20;61.00;;;;;;4996346;28;20050;-78
2023/08/23 09:37:46;;;;;;;6.70;2.40;;;28.10;59.40;;;;;;4989692;28;20069;-78
2023/08/23 09:40:17;;;;;;;11.88;3.03;;;28.10;58.50;;;;;;4986782;28;20058;-78
2023/08/23 09:42:44;;;;;;;13.25;2.53;;;28.90;55.10;;;;;;4965830;28;20209;-81
2023/08/23 09:45:18;;;;;;;8.07;2.42;;;28.80;56.80;;;;;;4989374;28;20057;-79
2023/08/23 09:47:58;;;;;;;4.32;2.55;;;29.60;56.70;;;;;;4985152;28;20112;-79
2023/08/23 09:50:25;;;;;;;4.72;2.15;;;29.50;54.60;;;;;;4986701;28;20117;-79
2023/08/23 09:53:20;;;;;;;9.82;2.08;;;29.80;55.60;;;;;;4977072;28;20077;-79
2023/08/23 09:55:48;;;;;;;5.03;1.80;;;30.20;51.80;;;;;;4975348;28;20333;-79
2023/08/23 09:58:15;;;;;;;6.68;2.10;;;29.70;51.40;;;;;;4994880;28;20081;-79
2023/08/23 10:00:42;;;;;;;7.15;1.90;;;28.80;53.90;;;;;;4992657;28;21275;-79
2023/08/23 10:03:09;;;;;;;6.25;2.00;;;29.80;51.80;;;;;;4989568;28;20061;-79
2023/08/23 10:05:37;;;;;;;2.40;1.42;;;30.00;51.50;;;;;;4989076;28;20093;-79
2023/08/23 10:08:04;;;;;;;7.80;1.73;;;30.20;52.40;;;;;;4986696;28;20056;-79
2023/08/23 10:10:31;;;;;;;6.10;2.78;;;31.20;51.50;;;;;;4964821;28;20053;-79
2023/08/23 10:13:05;;;;;;;4.07;1.65;;;31.50;49.40;;;;;;4990584;28;20060;-79
2023/08/23 10:15:36;;;;;;;16.40;2.10;;;31.90;49.50;;;;;;4989428;28;20060;-79
2023/08/23 10:18:06;;;;;;;2.42;1.10;;;31.50;47.70;;;;;;4988288;28;20053;-79
2023/08/23 10:20:35;;;;;;;3.67;1.27;;;30.20;48.10;;;;;;4992736;28;20463;-78
2023/08/23 10:23:16;;;;;;;4.82;1.48;;;29.80;50.90;;;;;;4972350;28;20077;-79
2023/08/23 10:25:47;;;;;;;7.28;1.50;;;29.30;50.10;;;;;;4968533;28;20042;-79
2023/08/23 10:28:16;;;;;;;3.85;0.90;;;28.70;53.70;;;;;;4979056;28;20062;-79
2023/08/23 10:30:45;;;;;;;1.77;0.80;;;28.30;53.00;;;;;;4977804;28;20623;-78
2023/08/23 10:33:14;;;;;;;3.65;0.90;;;29.00;54.10;;;;;;4985318;28;20065;-79
2023/08/23 10:35:45;;;;;;;5.57;0.98;;;29.90;51.80;;;;;;4986715;28;20054;-79
2023/08/23 10:38:13;;;;;;;8.43;1.20;;;30.70;50.00;;;;;;4984412;28;20045;-79
2023/08/23 10:40:43;;;;;;;3.25;1.20;;;31.40;49.90;;;;;;4985934;28;20046;-79
2023/08/23 10:43:14;;;;;;;2.83;1.30;;;31.90;48.30;;;;;;4986560;28;20046;-71
2023/08/23 10:45:48;;;;;;;6.55;1.55;;;32.00;47.10;;;;;;4989040;28;20730;-70
2023/08/23 10:48:15;;;;;;;4.60;1.25;;;31.90;47.60;;;;;;4967157;28;20105;-71
2023/08/23 10:50:42;;;;;;;3.60;1.00;;;31.90;44.80;;;;;;4986785;28;20088;-70
2023/08/23 10:53:10;;;;;;;2.72;1.38;;;29.90;46.90;;;;;;4985001;28;20447;-70
2023/08/23 10:55:38;;;;;;;5.10;1.50;;;29.90;47.30;;;;;;4972183;28;20055;-71
2023/08/23 10:58:05;;;;;;;2.60;1.50;;;29.10;49.00;;;;;;4990789;28;20081;-70
2023/08/23 11:00:32;;;;;;;3.47;1.40;;;29.50;51.60;;;;;;4982181;28;20082;-71
2023/08/23 11:03:00;;;;;;;9.73;1.02;;;30.90;49.70;;;;;;4967597;28;20078;-71
2023/08/23 11:05:29;;;;;;;4.78;1.35;;;31.40;47.70;;;;;;4968978;28;20046;-71
2023/08/23 11:07:59;;;;;;;4.03;1.45;;;32.10;47.10;;;;;;4968361;28;20069;-71
2023/08/23 11:10:26;;;;;;;5.93;1.30;;;32.60;44.40;;;;;;4988120;28;20050;-71
2023/08/23 11:12:54;;;;;;;5.68;1.73;;;32.10;43.90;;;;;;4988841;28;20137;-80
2023/08/23 11:15:22;;;;;;;1.77;1.45;;;31.80;46.80;;;;;;4978656;28;20054;-80
2023/08/23 11:17:48;;;;;;;4.63;1.35;;;30.80;44.80;;;;;;4972237;28;20046;-80
2023/08/23 11:20:17;;;;;;;2.65;1.38;;;29.20;49.60;;;;;;4994195;28;20037;-80
2023/08/23 11:22:44;;;;;;;3.25;1.40;;;29.90;50.20;;;;;;4981055;28;20073;-80
2023/08/23 11:25:11;;;;;;;5.07;1.92;;;31.00;48.10;;;;;;4975779;28;20557;-79
2023/08/23 11:27:38;;;;;;;19.52;2.38;;;32.10;46.70;;;;;;4980621;28;20050;-79
2023/08/23 11:30:07;;;;;;;6.28;1.77;;;32.60;46.00;;;;;;4987835;28;20065;-79
2023/08/23 11:32:35;;;;;;;2.90;1.60;;;33.60;43.70;;;;;;4980615;28;20522;-80
2023/08/23 11:35:04;;;;;;;2.83;1.30;;;34.10;42.60;;;;;;4984657;28;20146;-80
2023/08/23 11:37:34;;;;;;;3.67;1.10;;;33.70;44.20;;;;;;4989227;28;20054;-80
2023/08/23 11:40:10;;;;;;;4.30;1.15;;;34.70;43.10;;;;;;4963513;28;20108;-79
2023/08/23 11:42:38;;;;;;;5.47;1.45;;;35.10;42.10;;;;;;4965834;28;20971;-80
2023/08/23 11:45:06;;;;;;;2.40;1.27;;;35.50;41.20;;;;;;4986891;28;20085;-80
2023/08/23 11:47:36;;;;;;;6.68;1.42;;;33.80;40.80;;;;;;4987293;28;20088;-79
2023/08/23 11:50:07;;;;;;;1.98;1.40;;;32.60;44.80;;;;;;4975854;28;20760;-80
2023/08/23 11:52:34;;;;;;;4.80;1.08;;;33.40;43.40;;;;;;4990238;28;20046;-80
2023/08/23 11:55:04;;;;;;;7.63;1.30;;;34.50;42.90;;;;;;4967735;28;20081;-80
2023/08/23 11:57:33;;;;;;;2.47;1.13;;;35.30;38.10;;;;;;4990866;28;20053;-79
2023/08/23 12:00:01;;;;;;;5.15;1.30;;;33.70;43.00;;;;;;4994934;28;20050;-79
2023/08/23 12:02:28;;;;;;;5.40;1.10;;;34.20;41.60;;;;;;4972872;28;20154;-80
2023/08/23 12:04:56;;;;;;;1.98;1.15;;;34.40;42.70;;;;;;4989726;28;20046;-80
2023/08/23 12:07:23;;;;;;;3.00;1.15;;;34.00;42.30;;;;;;4989531;28;20532;-79
2023/08/23 12:09:50;;;;;;;6.97;1.45;;;33.40;42.70;;;;;;4994742;28;20131;-80
2023/08/23 12:12:16;;;;;;;2.15;1.23;;;34.70;41.80;;;;;;4973274;28;20066;-79
2023/08/23 12:14:43;;;;;;;6.32;1.10;;;34.40;41.70;;;;;;4979525;28;20082;-80
2023/08/23 12:17:11;;;;;;;4.80;1.20;;;35.80;40.20;;;;;;4983552;28;20499;-80
2023/08/23 12:19:38;;;;;;;11.70;1.70;;;35.90;38.80;;;;;;4983154;28;20090;-82
2023/08/23 12:22:10;;;;;;;3.22;1.08;;;36.10;39.70;;;;;;4994640;28;20106;-81
2023/08/23 12:24:36;;;;;;;1.98;0.88;;;36.30;38.40;;;;;;4969842;28;20062;-81
2023/08/23 12:27:04;;;;;;;4.32;1.05;;;37.20;37.30;;;;;;4993095;28;20038;-81
2023/08/23 12:29:31;;;;;;;2.55;1.23;;;37.30;37.50;;;;;;4988620;28;20072;-80
2023/08/23 12:31:58;;;;;;;1.75;1.10;;;36.80;38.10;;;;;;4988799;28;20054;-83
2023/08/23 12:34:25;;;;;;;3.80;1.27;;;37.10;38.60;;;;;;4984849;28;20464;-81
2023/08/23 12:36:52;;;;;;;7.97;1.02;;;38.50;36.40;;;;;;4991415;28;20058;-83
2023/08/23 12:39:19;;;;;;;3.20;1.00;;;38.10;37.10;;;;;;4973830;28;20050;-83
2023/08/23 12:41:46;;;;;;;5.13;1.02;;;38.50;36.30;;;;;;4979105;28;20117;-82
2023/08/23 12:44:14;;;;;;;4.93;1.08;;;38.70;35.70;;;;;;4975973;28;20054;-82